createdAt,value
2022-12-27T00:04:17.652Z,8.02
2022-12-27T00:09:17.092Z,8.08
2022-12-27T00:14:18.157Z,8.10
2022-12-27T00:19:18.304Z,8.10
2022-12-27T00:24:21.258Z,8.02
2022-12-27T00:29:20.291Z,8.00
2022-12-27T00:34:19.613Z,8.00
2022-12-27T00:39:20.637Z,8.00
2022-12-27T00:44:20.118Z,8.00
2022-12-27T00:49:19.504Z,8.00
2022-12-27T00:54:19.239Z,8.00
2022-12-27T00:59:19.092Z,8.00
2022-12-27T01:04:19.409Z,8.02
2022-12-27T01:09:20.073Z,8.10
2022-12-27T01:14:19.396Z,8.10
2022-12-27T01:19:18.390Z,8.10
2022-12-27T01:24:17.810Z,8.10
2022-12-27T01:29:18.286Z,8.10
2022-12-27T01:34:18.245Z,8.10
2022-12-27T01:39:17.746Z,8.10
2022-12-27T01:44:53.492Z,8.10
2022-12-27T01:50:08.890Z,8.10
2022-12-27T01:55:18.174Z,8.10
2022-12-27T02:00:19.611Z,8.10
2022-12-27T02:05:23.896Z,8.10
2022-12-27T02:10:23.359Z,8.10
2022-12-27T02:15:22.482Z,8.10
2022-12-27T02:20:26.218Z,8.00
2022-12-27T02:25:48.498Z,8.00
2022-12-27T02:30:54.506Z,8.00
2022-12-27T02:36:04.646Z,8.00
2022-12-27T02:41:26.216Z,8.00
2022-12-27T02:46:47.269Z,8.00
2022-12-27T02:52:22.326Z,8.00
2022-12-27T02:57:35.375Z,8.00
2022-12-27T03:03:00.341Z,8.00
2022-12-27T03:08:12.770Z,7.94
2022-12-27T03:13:48.215Z,7.90
2022-12-27T03:19:09.272Z,7.90
2022-12-27T03:24:35.106Z,7.60
2022-12-27T03:29:52.231Z,6.82
2022-12-27T03:34:57.793Z,6.12
2022-12-27T03:40:09.055Z,5.64
2022-12-27T03:45:10.533Z,5.28
2022-12-27T03:50:17.657Z,5.00
2022-12-27T03:55:18.224Z,4.70
2022-12-27T04:00:20.358Z,4.60
2022-12-27T04:05:20.422Z,4.50
2022-12-27T04:10:38.074Z,4.40
2022-12-27T04:15:54.969Z,4.40
2022-12-27T04:21:11.587Z,4.30
2022-12-27T04:26:28.840Z,4.30
2022-12-27T04:31:45.397Z,4.20
2022-12-27T04:36:45.794Z,4.20
2022-12-27T04:42:02.283Z,4.20
2022-12-27T04:47:20.152Z,4.10
2022-12-27T04:52:49.398Z,4.10
2022-12-27T04:57:50.875Z,4.10
2022-12-27T05:02:50.893Z,4.00
2022-12-27T05:08:08.148Z,4.00
2022-12-27T05:13:25.632Z,4.00
2022-12-27T05:18:26.228Z,3.90
2022-12-27T05:23:42.877Z,3.80
2022-12-27T05:28:42.367Z,3.80
2022-12-27T05:33:42.000Z,3.70
2022-12-27T05:38:41.113Z,3.60
2022-12-27T05:43:40.895Z,3.60
2022-12-27T05:48:40.503Z,3.50
2022-12-27T05:53:41.854Z,3.40
2022-12-27T05:58:41.372Z,3.30
2022-12-27T06:03:41.421Z,3.30
2022-12-27T06:08:42.600Z,3.20
2022-12-27T06:13:45.311Z,3.10
2022-12-27T06:18:48.409Z,3.10
2022-12-27T06:23:49.577Z,3.00
2022-12-27T06:28:49.698Z,3.00
2022-12-27T06:33:50.726Z,2.90
2022-12-27T06:38:50.187Z,2.80
2022-12-27T06:43:50.315Z,2.80
2022-12-27T06:48:49.539Z,2.70
2022-12-27T06:53:49.792Z,2.60
2022-12-27T06:58:51.570Z,2.60
2022-12-27T07:03:54.681Z,2.52
2022-12-27T07:08:55.894Z,2.50
2022-12-27T07:13:58.484Z,2.50
2022-12-27T07:18:59.687Z,2.50
2022-12-27T07:24:00.118Z,2.50
2022-12-27T07:29:02.499Z,2.50
2022-12-27T07:34:04.397Z,2.50
2022-12-27T07:39:03.037Z,2.50
2022-12-27T07:44:02.249Z,2.50
2022-12-27T07:49:02.879Z,2.52
2022-12-27T07:54:01.894Z,2.60
2022-12-27T07:59:04.855Z,2.60
2022-12-27T08:04:04.613Z,2.60
2022-12-27T08:09:08.095Z,2.70
2022-12-27T08:14:07.869Z,2.80
2022-12-27T08:19:08.676Z,2.90
2022-12-27T08:24:09.117Z,3.00
2022-12-27T08:29:08.439Z,3.10
2022-12-27T08:34:08.030Z,3.20
2022-12-27T08:39:08.810Z,3.20
2022-12-27T08:44:08.289Z,3.30
2022-12-27T08:49:07.534Z,3.32
2022-12-27T08:54:07.120Z,3.40
2022-12-27T08:59:07.032Z,3.50
2022-12-27T09:04:06.469Z,3.56
2022-12-27T09:09:05.484Z,3.60
2022-12-27T09:14:08.136Z,3.70
2022-12-27T09:19:08.517Z,3.80
2022-12-27T09:24:08.856Z,3.80
2022-12-27T09:29:09.084Z,3.90
2022-12-27T09:34:09.279Z,3.90
2022-12-27T09:39:10.326Z,3.96
2022-12-27T09:44:18.989Z,4.00
2022-12-27T09:49:24.871Z,4.00
2022-12-27T09:54:34.357Z,4.04
2022-12-27T09:59:40.788Z,4.10
2022-12-27T10:05:17.895Z,4.10
2022-12-27T10:10:23.460Z,4.20
2022-12-27T10:15:33.978Z,4.20
2022-12-27T10:20:56.048Z,4.30
2022-12-27T10:26:02.456Z,4.38
2022-12-27T10:31:08.218Z,4.50
2022-12-27T10:36:14.490Z,4.60
2022-12-27T10:41:34.725Z,4.60
2022-12-27T10:46:36.253Z,4.60
2022-12-27T10:51:43.531Z,4.60
2022-12-27T10:56:45.225Z,4.60
2022-12-27T11:01:46.935Z,4.60
2022-12-27T11:07:20.191Z,4.60
2022-12-27T11:12:25.312Z,4.70
2022-12-27T11:17:31.460Z,4.80
2022-12-27T11:22:31.646Z,4.90
2022-12-27T11:27:33.705Z,4.90
2022-12-27T11:32:33.887Z,4.90
2022-12-27T11:37:33.612Z,4.90
2022-12-27T11:42:41.670Z,4.90
2022-12-27T11:47:49.410Z,4.90
2022-12-27T11:53:21.431Z,4.90
2022-12-27T11:59:03.580Z,4.90
2022-12-27T12:04:42.693Z,4.96
2022-12-27T12:10:04.591Z,5.00
2022-12-27T12:15:41.241Z,5.00
2022-12-27T12:21:20.463Z,4.90
2022-12-27T12:26:24.964Z,4.78
2022-12-27T12:31:46.697Z,4.70
2022-12-27T12:37:05.490Z,4.60
2022-12-27T12:42:29.888Z,4.50
2022-12-27T12:47:58.701Z,4.50
2022-12-27T12:53:20.247Z,4.40
2022-12-27T12:58:47.545Z,4.30
2022-12-27T13:04:21.185Z,4.20
2022-12-27T13:09:37.612Z,4.20
2022-12-27T13:15:13.259Z,4.10
2022-12-27T13:20:47.614Z,4.10
2022-12-27T13:25:58.303Z,4.00
2022-12-27T13:31:08.977Z,4.00
2022-12-27T13:36:28.031Z,4.00
2022-12-27T13:41:44.260Z,4.00
2022-12-27T13:47:01.124Z,3.98
2022-12-27T13:52:18.208Z,3.90
2022-12-27T13:57:40.574Z,3.90
2022-12-27T14:03:40.969Z,3.90
2022-12-27T14:09:11.803Z,3.90
2022-12-27T14:14:16.155Z,3.90
2022-12-27T14:19:53.904Z,3.82
2022-12-27T14:25:40.261Z,3.80
2022-12-27T14:31:15.948Z,3.80
2022-12-27T14:37:00.593Z,3.80
2022-12-27T14:42:48.896Z,3.80
2022-12-27T14:48:30.805Z,3.80
2022-12-27T14:54:18.075Z,3.80
2022-12-27T14:59:38.768Z,3.80
2022-12-27T15:05:25.423Z,3.80
2022-12-27T15:10:52.502Z,3.72
2022-12-27T15:16:08.867Z,3.70
2022-12-27T15:21:28.861Z,3.70
2022-12-27T15:26:38.660Z,3.70
2022-12-27T15:31:52.137Z,3.70
2022-12-27T15:36:54.283Z,3.70
2022-12-27T15:42:07.442Z,3.70
2022-12-27T15:47:48.268Z,3.70
2022-12-27T15:53:18.352Z,3.70
2022-12-27T15:58:23.389Z,3.70
2022-12-27T16:03:40.997Z,3.70
2022-12-27T16:09:41.037Z,3.70
2022-12-27T16:14:45.451Z,3.70
2022-12-27T16:20:15.820Z,3.70
2022-12-27T16:25:31.835Z,3.62
2022-12-27T16:30:51.531Z,3.60
2022-12-27T16:36:18.507Z,3.60
2022-12-27T16:41:32.428Z,3.60
2022-12-27T16:47:27.858Z,3.60
2022-12-27T16:53:10.482Z,3.60
2022-12-27T16:58:37.429Z,3.60
2022-12-27T17:03:52.447Z,3.70
2022-12-27T17:09:46.083Z,3.70
2022-12-27T17:14:48.110Z,3.80
2022-12-27T17:19:55.865Z,3.80
2022-12-27T17:25:02.489Z,3.80
2022-12-27T17:30:25.289Z,3.80
2022-12-27T17:35:34.987Z,3.84
2022-12-27T17:40:48.184Z,3.86
2022-12-27T17:45:59.743Z,3.88
2022-12-27T17:51:07.354Z,3.88
2022-12-27T17:56:47.731Z,3.80
2022-12-27T18:01:51.928Z,3.80
2022-12-27T18:06:57.186Z,3.80
2022-12-27T18:11:57.625Z,3.80
2022-12-27T18:16:57.499Z,3.80
2022-12-27T18:22:04.699Z,3.74
2022-12-27T18:27:18.269Z,3.70
2022-12-27T18:32:21.128Z,3.70
2022-12-27T18:37:27.704Z,3.70
2022-12-27T18:42:36.380Z,3.70
2022-12-27T18:47:46.764Z,3.70
2022-12-27T18:52:51.235Z,3.70
2022-12-27T18:58:06.524Z,3.70
2022-12-27T19:03:21.977Z,3.70
2022-12-27T19:08:24.694Z,3.70
2022-12-27T19:13:30.343Z,3.70
2022-12-27T19:18:37.103Z,3.70
2022-12-27T19:23:43.283Z,3.70
2022-12-27T19:28:44.028Z,3.70
2022-12-27T19:33:48.242Z,3.70
2022-12-27T19:38:48.878Z,3.70
2022-12-27T19:43:50.172Z,3.70
2022-12-27T19:49:15.881Z,3.70
2022-12-27T19:54:19.667Z,3.70
2022-12-27T19:59:24.363Z,3.70
2022-12-27T20:04:26.820Z,3.70
2022-12-27T20:09:26.929Z,3.70
2022-12-27T20:14:29.830Z,3.70
2022-12-27T20:19:29.228Z,3.70
2022-12-27T20:24:28.627Z,3.70
2022-12-27T20:29:30.537Z,3.70
2022-12-27T20:34:29.909Z,3.70
2022-12-27T20:39:29.098Z,3.70
2022-12-27T20:44:28.345Z,3.64
2022-12-27T20:49:27.853Z,3.62
2022-12-27T20:54:27.965Z,3.60
2022-12-27T20:59:27.425Z,3.60
2022-12-27T21:04:27.880Z,3.60
2022-12-27T21:09:27.268Z,3.60
2022-12-27T21:14:28.100Z,3.60
2022-12-27T21:19:28.014Z,3.62
2022-12-27T21:24:27.277Z,3.62
2022-12-27T21:29:26.867Z,3.60
2022-12-27T21:34:26.979Z,3.64
2022-12-27T21:39:27.041Z,3.70
2022-12-27T21:44:26.346Z,3.70
2022-12-27T21:49:25.991Z,3.62
2022-12-27T21:54:25.243Z,3.60
2022-12-27T21:59:25.434Z,3.60
2022-12-27T22:04:24.928Z,3.60
2022-12-27T22:09:24.854Z,3.60
2022-12-27T22:14:25.696Z,3.60
2022-12-27T22:19:25.521Z,3.60
2022-12-27T22:24:32.561Z,3.60
2022-12-27T22:29:35.210Z,3.60
2022-12-27T22:34:35.249Z,3.58
2022-12-27T22:39:35.544Z,3.54
2022-12-27T22:44:35.415Z,3.50
2022-12-27T22:49:35.116Z,3.50
2022-12-27T22:55:04.690Z,3.50
2022-12-27T22:59:53.410Z,3.50
2022-12-27T23:04:52.615Z,3.50
2022-12-27T23:09:51.372Z,3.50
2022-12-27T23:14:51.107Z,3.48
2022-12-27T23:19:50.571Z,3.44
2022-12-27T23:24:52.272Z,3.44
2022-12-27T23:29:51.268Z,3.46
2022-12-27T23:34:52.885Z,3.50
2022-12-27T23:39:54.860Z,3.50
2022-12-27T23:44:55.851Z,3.50
2022-12-27T23:49:55.420Z,3.50
2022-12-27T23:54:55.633Z,3.50
2022-12-27T23:59:55.496Z,3.50
